Terminal Aerodrome Forecast
Issued by NWS Jackson, KY

Home | Current Version | Previous Version | Text Only | Print | Product List | Glossary On
Versions: 1 2 3 4 5 6 7 8 9 10 11 12 13 14 15 16 17 18 19 20
628
FTUS43 KJKL 271721
TAFJKL
TAF
KJKL 271721Z 2718/2818 VRB03KT P6SM BKN035 BKN150
     FM280000 25003KT 6SM -SHRA BR VCTS BKN035CB OVC100
     FM281000 25003KT 2SM -SHRA BR VCTS OVC020CB=

USA.gov is the U.S. government's official web portal to all federal, state and local government web resources and services.